Aeroporto :
LOGIN :

Iscrizione | Disclaimer

   EN    FR    IT 

 










Sommario :    VFR   VFR Marginale   IFR   IFR Intensivo   IFR Molto Intensivo
Visibilità : 
Base nubi : 
>= 8 km
>= 3000ft
5 / 8 km
1000 / 3000 ft
1500m / 5 km
500 / 1000 ft
800 / 1500m
200 / 500 ft
< 800m
< 200 ft
Simboli :   Temporali  Nebbia  Neve Forte  Precipitazioni Forti  Vento > 20 kt
SIGMETs :   Varie  Temporali  Ghiacco  Turbolenza  Onda orograficha  Ceneri Vulcaniche







- Altitudine del aeroporto : 26 ft
- Codice IATA : SYY
- Carte del aeroporto


EGPO - Stornoway

ULTIMO METAR :
  • 261520Z 16008KT 9999 FEW022 12/08 Q0996

METARs OBSOLETI :
  • 261450Z 17008KT 130V200 9999 FEW022 13/09 Q0997
  • 261420Z 19008KT 160V230 9999 VCSH FEW020 SCT032 12/10 Q0997
  • 261350Z 20014KT 9999 -SHRA FEW010 FEW018CB BKN032 10/08 Q0997
  • 261320Z 18010KT 9999 7000SW SHRA FEW011 FEW018CB BKN029 11/08 Q0997
  • 261250Z 18010KT 9999 -SHRA FEW018 SCT028 BKN036 11/07 Q0997

TAF TAF EGPO
Valido dal 26 a 15 ore il 27 a 00 ore UTC


261359Z 2615/2624 17012KT 9999 FEW015 SCT030
PROB30
TEMPO 2615/2618 7000 SHRA
BECMG 2618/2621 09009KT
PROB40
TEMPO 2618/2624 6000 SHRA BKN012
ATIS : +44 1851 707 444
Nessun NOTAM noto per questo aeroporto.



MetMap, La meteo Aeronautica in un colpo d'occhio ! - Copyright ORBIFLY Dicembre 2007 - Disclaimer

ORBIFLY MET'MAP TEAM :

Programmazione e sviluppo : Alexandra Zaïnal
Concezione e sviluppo : Baudouin d'Aumeries
Co-Programmazione e sviluppo : Marc-Olivier Méhu
Supporto tecnico e logistico : Manuel Goepfert
Aiuto per la traduzione : Arnaldo La Scala

Contatto : metmap@orbifly.com




FONTI E CREDITI :

   NOAA